createdAt,value
2018-02-02T00:00:19.695Z,980.6
2018-02-02T00:01:19.685Z,980.57
2018-02-02T00:02:19.680Z,980.55
2018-02-02T00:03:19.667Z,980.56
2018-02-02T00:04:19.658Z,980.59
2018-02-02T00:05:19.647Z,980.56
2018-02-02T00:06:19.637Z,980.58
2018-02-02T00:07:19.628Z,980.56
2018-02-02T00:08:19.619Z,980.6
2018-02-02T00:09:19.614Z,980.56
2018-02-02T00:10:19.600Z,980.57
2018-02-02T00:11:19.591Z,980.6
2018-02-02T00:12:19.581Z,980.56
2018-02-02T00:13:19.600Z,980.58
2018-02-02T00:14:19.561Z,980.59
2018-02-02T00:15:19.553Z,980.59
2018-02-02T00:16:19.542Z,980.57
2018-02-02T00:17:19.532Z,980.61
2018-02-02T00:18:19.523Z,980.55
2018-02-02T00:19:19.512Z,980.56
2018-02-02T00:20:19.507Z,980.52
2018-02-02T00:21:19.495Z,980.55
2018-02-02T00:22:19.484Z,980.57
2018-02-02T00:23:19.473Z,980.51
2018-02-02T00:24:19.463Z,980.54
2018-02-02T00:25:19.454Z,980.53
2018-02-02T00:26:19.449Z,980.55
2018-02-02T00:27:19.433Z,980.55
2018-02-02T00:28:19.425Z,980.52
2018-02-02T00:29:19.414Z,980.56
2018-02-02T00:30:19.405Z,980.51
2018-02-02T00:31:19.401Z,980.5
2018-02-02T00:32:19.394Z,980.52
2018-02-02T00:33:19.375Z,980.55
2018-02-02T00:34:19.364Z,980.55
2018-02-02T00:35:19.358Z,980.58
2018-02-02T00:36:19.351Z,980.57
2018-02-02T00:37:19.345Z,980.58
2018-02-02T00:38:19.322Z,980.57
2018-02-02T00:39:19.314Z,980.6
2018-02-02T00:40:19.309Z,980.62
2018-02-02T00:41:19.298Z,980.63
2018-02-02T00:42:19.299Z,980.6
2018-02-02T00:43:19.274Z,980.6
2018-02-02T00:44:19.264Z,980.62
2018-02-02T00:45:19.256Z,980.6
2018-02-02T00:46:19.243Z,980.64
2018-02-02T00:47:19.235Z,980.64
2018-02-02T00:48:19.226Z,980.65
2018-02-02T00:49:19.214Z,980.69
2018-02-02T00:50:19.208Z,980.73
2018-02-02T00:51:19.193Z,980.68
2018-02-02T00:52:19.191Z,980.75
2018-02-02T00:53:19.175Z,980.72
2018-02-02T00:54:19.166Z,980.67
2018-02-02T00:55:19.154Z,980.68
2018-02-02T00:56:19.143Z,980.7
2018-02-02T00:57:19.132Z,980.67
2018-02-02T00:58:19.123Z,980.7
2018-02-02T00:59:19.111Z,980.69
2018-02-02T01:00:19.101Z,980.64
2018-02-02T01:01:19.090Z,980.68
2018-02-02T01:02:19.081Z,980.66
2018-02-02T01:03:19.070Z,980.63
2018-02-02T01:04:19.059Z,980.66
2018-02-02T01:05:19.051Z,980.61
2018-02-02T01:06:19.040Z,980.64
2018-02-02T01:07:19.028Z,980.67
2018-02-02T01:08:19.021Z,980.69
2018-02-02T01:09:19.009Z,980.68
2018-02-02T01:10:18.999Z,980.73
2018-02-02T01:11:18.989Z,980.76
2018-02-02T01:12:18.978Z,980.76
2018-02-02T01:13:18.967Z,980.74
2018-02-02T01:14:18.956Z,980.81
2018-02-02T01:15:18.949Z,980.79
2018-02-02T01:16:18.937Z,980.81
2018-02-02T01:17:18.926Z,980.84
2018-02-02T01:18:18.915Z,980.82
2018-02-02T01:19:18.909Z,980.86
2018-02-02T01:20:18.895Z,980.84
2018-02-02T01:21:18.890Z,980.87
2018-02-02T01:22:18.874Z,980.88
2018-02-02T01:23:18.863Z,980.83
2018-02-02T01:24:18.853Z,980.88
2018-02-02T01:25:18.844Z,980.87
2018-02-02T01:26:18.832Z,980.92
2018-02-02T01:27:18.820Z,980.87
2018-02-02T01:28:18.809Z,980.88
2018-02-02T01:29:18.799Z,980.84
2018-02-02T01:30:18.789Z,980.88
2018-02-02T01:31:18.779Z,980.85
2018-02-02T01:32:18.773Z,980.86
2018-02-02T01:33:18.760Z,980.86
2018-02-02T01:34:18.746Z,980.84
2018-02-02T01:35:18.736Z,980.85
2018-02-02T01:36:18.734Z,980.87
2018-02-02T01:37:18.717Z,980.84
2018-02-02T01:38:18.705Z,980.84
2018-02-02T01:39:18.722Z,980.87
2018-02-02T01:40:18.748Z,980.86
2018-02-02T01:41:18.748Z,980.88
2018-02-02T01:42:18.664Z,980.85
2018-02-02T01:43:18.652Z,980.82
2018-02-02T01:44:18.648Z,980.84
2018-02-02T01:45:18.632Z,980.87
2018-02-02T01:46:18.622Z,980.83
2018-02-02T01:47:18.613Z,980.78
2018-02-02T01:48:18.601Z,980.81
2018-02-02T01:49:18.591Z,980.82
2018-02-02T01:50:18.580Z,980.83
2018-02-02T01:51:18.576Z,980.76
2018-02-02T01:52:18.560Z,980.81
2018-02-02T01:53:18.548Z,980.79
2018-02-02T01:54:18.538Z,980.77
2018-02-02T01:55:18.527Z,980.79
2018-02-02T01:56:18.519Z,980.77
2018-02-02T01:57:18.506Z,980.81
2018-02-02T01:58:18.502Z,980.82
2018-02-02T01:59:18.485Z,980.78
2018-02-02T02:00:18.477Z,980.8
2018-02-02T02:01:18.464Z,980.77
2018-02-02T02:02:18.453Z,980.77
2018-02-02T02:03:18.444Z,980.73
2018-02-02T02:04:18.433Z,980.78
2018-02-02T02:05:18.424Z,980.76
2018-02-02T02:06:18.411Z,980.79
2018-02-02T02:07:18.401Z,980.75
2018-02-02T02:08:18.391Z,980.74
2018-02-02T02:09:18.381Z,980.73
2018-02-02T02:10:18.369Z,980.75
2018-02-02T02:11:18.361Z,980.7
2018-02-02T02:12:18.349Z,980.73
2018-02-02T02:13:18.337Z,980.74
2018-02-02T02:14:18.334Z,980.75
2018-02-02T02:15:18.318Z,980.73
2018-02-02T02:16:18.309Z,980.72
2018-02-02T02:17:18.297Z,980.74
2018-02-02T02:18:18.286Z,980.7
2018-02-02T02:19:18.280Z,980.73
2018-02-02T02:20:18.266Z,980.67
2018-02-02T02:21:18.254Z,980.68
2018-02-02T02:22:18.254Z,980.71
2018-02-02T02:23:18.234Z,980.69
2018-02-02T02:24:18.223Z,980.68
2018-02-02T02:25:18.216Z,980.62
2018-02-02T02:26:18.210Z,980.64
2018-02-02T02:27:18.197Z,980.63
2018-02-02T02:28:18.181Z,980.64
2018-02-02T02:29:18.170Z,980.65
2018-02-02T02:30:18.161Z,980.63
2018-02-02T02:31:18.158Z,980.61
2018-02-02T02:32:18.140Z,980.61
2018-02-02T02:33:18.129Z,980.61
2018-02-02T02:34:18.121Z,980.6
2018-02-02T02:35:18.600Z,980.65
2018-02-02T02:36:18.097Z,980.66
2018-02-02T02:37:18.090Z,980.67
2018-02-02T02:38:18.076Z,980.64
2018-02-02T02:39:18.071Z,980.66
2018-02-02T02:40:18.057Z,980.69
2018-02-02T02:41:18.058Z,980.67
2018-02-02T02:42:18.036Z,980.67
2018-02-02T02:43:18.026Z,980.7
2018-02-02T02:44:18.016Z,980.75
2018-02-02T02:45:18.005Z,980.68
2018-02-02T02:46:17.994Z,980.72
2018-02-02T02:47:17.990Z,980.77
2018-02-02T02:48:17.977Z,980.7
2018-02-02T02:49:17.963Z,980.72
2018-02-02T02:50:17.953Z,980.72
2018-02-02T02:51:17.943Z,980.75
2018-02-02T02:52:17.949Z,980.73
2018-02-02T02:53:17.938Z,980.67
2018-02-02T02:54:17.917Z,980.74
2018-02-02T02:55:17.901Z,980.75
2018-02-02T02:56:17.891Z,980.82
2018-02-02T02:57:17.881Z,980.77
2018-02-02T02:58:17.877Z,980.76
2018-02-02T02:59:17.860Z,980.79
2018-02-02T03:00:17.854Z,980.8
2018-02-02T03:01:17.837Z,980.81
2018-02-02T03:02:17.828Z,980.76
2018-02-02T03:03:17.817Z,980.75
2018-02-02T03:04:17.805Z,980.84
2018-02-02T03:05:17.797Z,980.8
2018-02-02T03:06:17.786Z,980.81
2018-02-02T03:07:17.780Z,980.82
2018-02-02T03:08:17.767Z,980.78
2018-02-02T03:09:17.756Z,980.81
2018-02-02T03:10:17.745Z,980.8
2018-02-02T03:11:17.735Z,980.8
2018-02-02T03:12:17.727Z,980.78
2018-02-02T03:13:17.715Z,980.8
2018-02-02T03:14:17.705Z,980.8
2018-02-02T03:15:17.695Z,980.83
2018-02-02T03:16:17.682Z,980.83
2018-02-02T03:17:17.675Z,980.82
2018-02-02T03:18:17.686Z,980.83
2018-02-02T03:19:17.652Z,980.81
2018-02-02T03:20:17.641Z,980.8
2018-02-02T03:21:17.632Z,980.82
2018-02-02T03:22:17.623Z,980.86
2018-02-02T03:23:17.624Z,980.85
2018-02-02T03:24:17.601Z,980.82
2018-02-02T03:25:17.594Z,980.87
2018-02-02T03:26:17.580Z,980.85
2018-02-02T03:27:17.570Z,980.83
2018-02-02T03:28:17.561Z,980.83
2018-02-02T03:29:17.549Z,980.78
2018-02-02T03:30:17.538Z,980.81
2018-02-02T03:31:17.532Z,980.82
2018-02-02T03:32:17.518Z,980.81
2018-02-02T03:33:17.508Z,980.82
2018-02-02T03:34:17.498Z,980.85
2018-02-02T03:35:17.486Z,980.83
2018-02-02T03:36:17.478Z,980.78
2018-02-02T03:37:17.470Z,980.79
2018-02-02T03:38:17.461Z,980.76
2018-02-02T03:39:17.445Z,980.77
2018-02-02T03:40:17.435Z,980.73
2018-02-02T03:41:17.425Z,980.74
2018-02-02T03:42:17.417Z,980.75
2018-02-02T03:43:17.404Z,980.74
2018-02-02T03:44:17.393Z,980.71
2018-02-02T03:45:17.382Z,980.72
2018-02-02T03:46:17.373Z,980.77
2018-02-02T03:47:17.361Z,980.76
2018-02-02T03:48:17.349Z,980.77
2018-02-02T03:49:17.339Z,980.8
2018-02-02T03:50:17.330Z,980.78
2018-02-02T03:51:17.329Z,980.73
2018-02-02T03:52:17.311Z,980.76
2018-02-02T03:53:17.298Z,980.78
2018-02-02T03:54:17.291Z,980.78
2018-02-02T03:55:17.276Z,980.82
2018-02-02T03:56:17.313Z,980.79
2018-02-02T03:57:17.255Z,980.82
2018-02-02T03:58:17.243Z,980.84
2018-02-02T03:59:17.237Z,980.89
2018-02-02T04:00:17.221Z,980.92
2018-02-02T04:01:17.218Z,980.86
2018-02-02T04:02:17.209Z,980.86
2018-02-02T04:03:17.192Z,980.85
2018-02-02T04:04:17.178Z,980.85
2018-02-02T04:05:17.173Z,980.85
2018-02-02T04:06:17.158Z,980.86
2018-02-02T04:07:17.147Z,980.88
2018-02-02T04:08:17.137Z,980.97
2018-02-02T04:09:17.129Z,981.01
2018-02-02T04:10:17.114Z,981
2018-02-02T04:11:17.103Z,981.02
2018-02-02T04:12:17.092Z,981.04
2018-02-02T04:13:17.084Z,981.02
2018-02-02T04:14:17.071Z,981.01
2018-02-02T04:15:17.063Z,981.08
2018-02-02T04:16:17.050Z,981.02
2018-02-02T04:17:17.037Z,981.02
2018-02-02T04:18:17.029Z,981.07
2018-02-02T04:19:17.024Z,981.09
2018-02-02T04:20:17.008Z,981.09
2018-02-02T04:21:16.995Z,981.07
2018-02-02T04:22:16.986Z,981.08
2018-02-02T04:23:16.975Z,981.1
2018-02-02T04:24:16.968Z,981.12
2018-02-02T04:25:16.957Z,981.07
2018-02-02T04:26:16.942Z,981.09
2018-02-02T04:27:16.932Z,981.08
2018-02-02T04:28:16.925Z,981.06
2018-02-02T04:29:16.910Z,981.02
2018-02-02T04:30:16.900Z,980.99
2018-02-02T04:31:16.888Z,981.05
2018-02-02T04:32:16.877Z,981.01
2018-02-02T04:33:16.866Z,981
2018-02-02T04:34:16.865Z,981.08
2018-02-02T04:35:16.859Z,981.04
2018-02-02T04:36:16.837Z,981.07
2018-02-02T04:37:16.829Z,981.06
2018-02-02T04:38:16.812Z,981.08
2018-02-02T04:39:16.800Z,981.06
2018-02-02T04:40:16.797Z,981.01
2018-02-02T04:41:16.783Z,981.04
2018-02-02T04:42:16.774Z,981.02
2018-02-02T04:43:16.758Z,981
2018-02-02T04:44:16.748Z,981.04
2018-02-02T04:45:16.737Z,981
2018-02-02T04:46:16.730Z,981.04
2018-02-02T04:47:16.714Z,981.04
2018-02-02T04:48:16.741Z,981.02
2018-02-02T04:49:16.690Z,981.02
2018-02-02T04:50:16.680Z,981.07
2018-02-02T04:51:16.669Z,981.06
2018-02-02T04:52:16.659Z,981.07
2018-02-02T04:53:16.648Z,981.01
2018-02-02T04:54:16.635Z,981.06
2018-02-02T04:55:16.624Z,981.06
2018-02-02T04:56:16.614Z,981.06
2018-02-02T04:57:16.604Z,980.99
2018-02-02T04:58:16.604Z,981.04
2018-02-02T04:59:16.580Z,981.03
2018-02-02T05:00:16.570Z,981.03
2018-02-02T05:01:16.559Z,981.02
2018-02-02T05:02:16.548Z,981
2018-02-02T05:03:16.548Z,980.98
2018-02-02T05:04:16.526Z,980.89
2018-02-02T05:05:16.516Z,980.97
2018-02-02T05:06:16.506Z,980.98
2018-02-02T05:07:16.499Z,980.91
2018-02-02T05:08:16.482Z,980.9
2018-02-02T05:09:16.471Z,980.96
2018-02-02T05:10:16.462Z,980.99
2018-02-02T05:11:16.455Z,980.93
2018-02-02T05:12:16.441Z,980.93
2018-02-02T05:13:16.428Z,980.95
2018-02-02T05:14:16.417Z,980.89
2018-02-02T05:15:16.418Z,980.87
2018-02-02T05:16:16.397Z,980.92
2018-02-02T05:17:16.384Z,980.92
2018-02-02T05:18:16.376Z,980.86
2018-02-02T05:19:16.363Z,980.88
2018-02-02T05:20:16.351Z,980.88
2018-02-02T05:21:16.353Z,980.89
2018-02-02T05:22:16.336Z,980.86
2018-02-02T05:23:16.320Z,980.92
2018-02-02T05:24:16.306Z,980.92
2018-02-02T05:25:16.495Z,980.91
2018-02-02T05:26:16.284Z,980.88
2018-02-02T05:27:16.279Z,980.91
2018-02-02T05:28:16.275Z,980.9
2018-02-02T05:29:16.252Z,980.85
2018-02-02T05:30:16.240Z,980.91
2018-02-02T05:31:16.229Z,980.9
2018-02-02T05:32:16.218Z,980.92
2018-02-02T05:33:16.207Z,980.87
2018-02-02T05:34:16.196Z,980.91
2018-02-02T05:35:16.549Z,980.9
2018-02-02T05:36:16.173Z,980.88
2018-02-02T05:37:16.162Z,980.88
2018-02-02T05:38:16.150Z,980.87
2018-02-02T05:39:16.146Z,980.88
2018-02-02T05:40:16.133Z,980.9
2018-02-02T05:41:16.120Z,980.88
2018-02-02T05:42:16.108Z,980.86
2018-02-02T05:43:16.100Z,980.93
2018-02-02T05:44:16.085Z,980.86
2018-02-02T05:45:16.088Z,980.89
2018-02-02T05:46:16.064Z,980.93
2018-02-02T05:47:16.049Z,980.88
2018-02-02T05:48:16.041Z,980.79
2018-02-02T05:49:16.028Z,980.75
2018-02-02T05:50:16.016Z,980.76
2018-02-02T05:51:16.006Z,980.77
2018-02-02T05:52:15.994Z,980.86
2018-02-02T05:53:15.983Z,980.85
2018-02-02T05:54:15.971Z,980.81
2018-02-02T05:55:15.963Z,980.86
2018-02-02T05:56:15.955Z,980.87
2018-02-02T05:57:15.938Z,980.82
2018-02-02T05:58:15.930Z,980.87
2018-02-02T05:59:15.917Z,980.93
2018-02-02T06:00:16.277Z,980.96
2018-02-02T06:01:15.893Z,980.91
2018-02-02T06:02:15.882Z,980.92
2018-02-02T06:03:15.871Z,980.91
2018-02-02T06:04:15.859Z,980.93
2018-02-02T06:05:15.942Z,980.9
2018-02-02T06:06:15.837Z,980.95
2018-02-02T06:07:15.824Z,980.93
2018-02-02T06:08:15.862Z,980.9
2018-02-02T06:09:15.803Z,980.92
2018-02-02T06:10:15.961Z,980.88
2018-02-02T06:11:15.781Z,980.89
2018-02-02T06:12:15.770Z,980.85
2018-02-02T06:13:15.758Z,980.87
2018-02-02T06:14:15.748Z,980.89
2018-02-02T06:23:18.235Z,980.98
2018-02-02T06:24:18.218Z,980.93
2018-02-02T06:25:18.266Z,980.94
2018-02-02T06:26:18.187Z,980.92
2018-02-02T06:27:18.177Z,980.96
2018-02-02T06:28:18.161Z,980.94
2018-02-02T06:29:18.151Z,980.97
2018-02-02T06:30:18.136Z,980.93
2018-02-02T06:31:18.121Z,980.99
2018-02-02T06:32:18.110Z,980.99
2018-02-02T06:33:18.095Z,981.02
2018-02-02T06:34:18.098Z,981
2018-02-02T06:35:18.071Z,980.92
2018-02-02T06:36:18.067Z,980.97
2018-02-02T06:37:18.051Z,981
2018-02-02T06:38:18.035Z,980.99
2018-02-02T06:39:18.023Z,980.95
2018-02-02T06:40:18.011Z,980.98
2018-02-02T06:41:18.009Z,980.97
2018-02-02T06:42:17.992Z,980.97
2018-02-02T06:43:17.977Z,980.98
2018-02-02T06:44:17.970Z,980.96
2018-02-02T06:45:17.952Z,981.03
2018-02-02T06:46:17.942Z,980.99
2018-02-02T06:47:17.928Z,981
2018-02-02T06:48:17.915Z,981
2018-02-02T06:49:17.903Z,981.01
2018-02-02T06:50:17.892Z,981.03
2018-02-02T06:51:17.895Z,981.06
2018-02-02T06:52:17.865Z,981.06
2018-02-02T06:53:17.855Z,981.04
2018-02-02T06:54:17.843Z,981.07
2018-02-02T06:55:17.831Z,981.12
2018-02-02T06:56:17.820Z,981.06
2018-02-02T06:57:17.807Z,981.07
2018-02-02T06:58:17.798Z,981.1
2018-02-02T06:59:17.783Z,981.11
2018-02-02T07:00:18.140Z,981.05
2018-02-02T07:01:17.761Z,981
2018-02-02T07:02:17.754Z,981.09
2018-02-02T07:03:17.742Z,981.07
2018-02-02T07:04:17.723Z,981.06
2018-02-02T07:05:17.715Z,981.15
2018-02-02T07:06:17.700Z,981.16
2018-02-02T07:07:17.700Z,981.2
2018-02-02T07:08:17.677Z,981.15
2018-02-02T07:09:17.667Z,981.2
2018-02-02T07:10:17.653Z,981.25
2018-02-02T07:11:17.644Z,981.16
2018-02-02T07:12:17.631Z,981.18
2018-02-02T07:13:17.620Z,981.22
2018-02-02T07:14:17.608Z,981.25
2018-02-02T07:15:17.597Z,981.23
2018-02-02T07:16:17.585Z,981.24
2018-02-02T07:17:17.573Z,981.31
2018-02-02T07:18:17.561Z,981.3
2018-02-02T07:19:17.552Z,981.25
2018-02-02T07:20:17.544Z,981.25
2018-02-02T07:21:17.527Z,981.28
2018-02-02T07:22:17.518Z,981.26
2018-02-02T07:23:17.507Z,981.29
2018-02-02T07:24:17.498Z,981.22
2018-02-02T07:25:17.485Z,981.24
2018-02-02T07:26:17.473Z,981.25
2018-02-02T07:27:17.465Z,981.29
2018-02-02T07:28:17.453Z,981.28
2018-02-02T07:29:17.451Z,981.3
2018-02-02T07:30:17.434Z,981.29
2018-02-02T07:31:17.418Z,981.27
2018-02-02T07:32:17.411Z,981.25
2018-02-02T07:33:17.400Z,981.28
2018-02-02T07:34:17.391Z,981.25
2018-02-02T07:35:17.378Z,981.31
2018-02-02T07:36:17.368Z,981.33
2018-02-02T07:37:17.358Z,981.34
2018-02-02T07:38:17.374Z,981.34
2018-02-02T07:39:17.335Z,981.38
2018-02-02T07:40:17.396Z,981.4
2018-02-02T07:41:17.329Z,981.37
2018-02-02T07:42:17.306Z,981.34
2018-02-02T07:43:17.295Z,981.4
2018-02-02T07:44:17.284Z,981.39
2018-02-02T07:45:17.574Z,981.38
2018-02-02T07:46:17.268Z,981.4
2018-02-02T07:47:17.256Z,981.41
2018-02-02T07:48:17.242Z,981.42
2018-02-02T07:49:17.232Z,981.38
2018-02-02T07:50:17.222Z,981.42
2018-02-02T07:51:17.212Z,981.44
2018-02-02T07:52:17.202Z,981.43
2018-02-02T07:53:17.192Z,981.46
2018-02-02T07:54:17.183Z,981.42
2018-02-02T07:55:17.171Z,981.45
2018-02-02T07:56:17.172Z,981.4
2018-02-02T07:57:17.152Z,981.51
2018-02-02T07:58:17.142Z,981.51
2018-02-02T07:59:17.133Z,981.48
2018-02-02T08:00:17.136Z,981.48
2018-02-02T08:01:17.112Z,981.51
2018-02-02T08:02:17.103Z,981.5
2018-02-02T08:03:17.093Z,981.52
2018-02-02T08:04:17.084Z,981.49
2018-02-02T08:05:17.081Z,981.57
2018-02-02T08:06:17.072Z,981.48
2018-02-02T08:07:17.055Z,981.49
2018-02-02T08:08:17.044Z,981.49
2018-02-02T08:09:17.035Z,981.44
2018-02-02T08:10:17.025Z,981.44
2018-02-02T08:11:17.016Z,981.48
2018-02-02T08:12:17.005Z,981.51
2018-02-02T08:13:16.995Z,981.46
2018-02-02T08:14:16.986Z,981.41
2018-02-02T08:15:17.002Z,981.48
2018-02-02T08:16:16.968Z,981.43
2018-02-02T08:17:16.961Z,981.39
2018-02-02T08:18:16.961Z,981.42
2018-02-02T08:19:16.939Z,981.41
2018-02-02T08:20:16.929Z,981.39
2018-02-02T08:21:16.920Z,981.39
2018-02-02T08:22:16.915Z,981.44
2018-02-02T08:23:16.910Z,981.44
2018-02-02T08:24:16.909Z,981.43
2018-02-02T08:25:16.891Z,981.39
2018-02-02T08:26:16.885Z,981.36
2018-02-02T08:27:16.864Z,981.36
2018-02-02T08:28:16.855Z,981.39
2018-02-02T08:29:16.846Z,981.36
2018-02-02T08:30:16.857Z,981.4
2018-02-02T08:31:16.832Z,981.38
2018-02-02T08:32:16.820Z,981.35
2018-02-02T08:33:16.817Z,981.36
2018-02-02T08:34:16.803Z,981.32
2018-02-02T08:35:16.793Z,981.33
2018-02-02T08:36:16.801Z,981.3
2018-02-02T08:37:16.774Z,981.28
2018-02-02T08:38:16.764Z,981.3
2018-02-02T08:39:16.755Z,981.35
2018-02-02T08:40:16.748Z,981.32
2018-02-02T08:41:16.739Z,981.35
2018-02-02T08:42:16.729Z,981.34
2018-02-02T08:43:16.727Z,981.32
2018-02-02T08:44:16.710Z,981.28
2018-02-02T08:45:16.707Z,981.24
2018-02-02T08:46:16.708Z,981.26
2018-02-02T08:47:16.684Z,981.32
2018-02-02T08:48:16.677Z,981.32
2018-02-02T08:49:16.676Z,981.36
2018-02-02T08:50:16.659Z,981.33
2018-02-02T08:51:16.649Z,981.39
2018-02-02T08:52:16.645Z,981.38
2018-02-02T08:53:16.632Z,981.38
2018-02-02T08:54:16.624Z,981.48
2018-02-02T08:55:16.624Z,981.44
2018-02-02T08:56:16.608Z,981.5
2018-02-02T08:57:16.602Z,981.46
2018-02-02T08:58:16.595Z,981.44
2018-02-02T08:59:16.581Z,981.51
2018-02-02T09:00:16.576Z,981.55
2018-02-02T09:01:16.568Z,981.54
2018-02-02T09:02:16.568Z,981.51
2018-02-02T09:03:16.547Z,981.49
2018-02-02T09:04:17.346Z,981.47
2018-02-02T09:05:16.532Z,981.54
2018-02-02T09:06:16.523Z,981.45
2018-02-02T09:07:16.517Z,981.44
2018-02-02T09:08:16.509Z,981.46
2018-02-02T09:09:16.558Z,981.41
2018-02-02T09:10:16.504Z,981.32
2018-02-02T09:11:16.485Z,981.35
2018-02-02T09:12:16.477Z,981.37
2018-02-02T09:13:16.468Z,981.33
2018-02-02T09:14:16.461Z,981.39
2018-02-02T09:15:16.497Z,981.39
2018-02-02T09:16:16.450Z,981.34
2018-02-02T09:17:16.455Z,981.4
2018-02-02T09:18:16.432Z,981.38
2018-02-02T09:19:16.425Z,981.35
2018-02-02T09:20:16.445Z,981.38
2018-02-02T09:21:16.411Z,981.4
2018-02-02T09:22:16.403Z,981.36
2018-02-02T09:23:16.430Z,981.38
2018-02-02T09:24:16.390Z,981.39
2018-02-02T09:25:16.382Z,981.34
2018-02-02T09:26:16.375Z,981.42
2018-02-02T09:27:16.368Z,981.22
2018-02-02T09:28:16.361Z,981.29
2018-02-02T09:29:16.353Z,981.31
2018-02-02T09:30:16.347Z,981.3
2018-02-02T09:31:16.350Z,981.32
2018-02-02T09:32:16.335Z,981.38
2018-02-02T09:33:16.326Z,981.34
2018-02-02T09:34:16.319Z,981.36
2018-02-02T09:35:16.312Z,981.33
2018-02-02T09:36:16.302Z,981.37
2018-02-02T09:37:16.305Z,981.38
2018-02-02T09:38:16.290Z,981.39
2018-02-02T09:39:16.288Z,981.35
2018-02-02T09:40:16.407Z,981.32
2018-02-02T09:41:16.265Z,981.31
2018-02-02T09:42:16.258Z,981.35
2018-02-02T09:43:16.253Z,981.29
2018-02-02T09:44:16.242Z,981.26
2018-02-02T09:45:16.387Z,981.26
2018-02-02T09:46:16.231Z,981.24
2018-02-02T09:47:16.222Z,981.3
2018-02-02T09:48:16.214Z,981.32
2018-02-02T09:49:16.209Z,981.38
2018-02-02T09:50:16.200Z,981.44
2018-02-02T09:51:16.192Z,981.37
2018-02-02T09:52:16.184Z,981.4
2018-02-02T09:53:16.179Z,981.39
2018-02-02T09:54:16.174Z,981.42
2018-02-02T09:55:16.164Z,981.45
2018-02-02T09:56:16.155Z,981.44
2018-02-02T09:57:16.148Z,981.44
2018-02-02T09:58:16.144Z,981.45
2018-02-02T09:59:16.132Z,981.47
2018-02-02T10:00:16.283Z,981.53
2018-02-02T10:01:16.120Z,981.46
2018-02-02T10:02:16.111Z,981.44
2018-02-02T10:03:16.106Z,981.46
2018-02-02T10:04:16.097Z,981.46
2018-02-02T10:05:16.165Z,981.45
2018-02-02T10:06:16.083Z,981.42
2018-02-02T10:07:16.081Z,981.48
2018-02-02T10:08:16.069Z,981.5
2018-02-02T10:09:16.061Z,981.45
2018-02-02T10:10:16.312Z,981.47
2018-02-02T10:11:16.047Z,981.42
2018-02-02T10:12:16.041Z,981.43
2018-02-02T10:13:16.034Z,981.48
2018-02-02T10:14:16.037Z,981.42
2018-02-02T10:15:16.207Z,981.44
2018-02-02T10:16:16.011Z,981.4
2018-02-02T10:17:16.004Z,981.44
2018-02-02T10:18:15.997Z,981.44
2018-02-02T10:19:15.990Z,981.44
2018-02-02T10:20:16.170Z,981.39
2018-02-02T10:21:15.985Z,981.42
2018-02-02T10:22:15.977Z,981.46
2018-02-02T10:23:15.961Z,981.37
2018-02-02T10:52:55.399Z,981.26
2018-02-02T10:53:55.385Z,981.19
2018-02-02T10:54:55.372Z,981.31
2018-02-02T10:55:55.358Z,981.23
2018-02-02T10:56:55.345Z,981.22
2018-02-02T10:57:55.334Z,981.25
2018-02-02T10:58:55.324Z,981.19
2018-02-02T10:59:55.316Z,981.21
2018-02-02T11:00:55.303Z,981.21
2018-02-02T11:01:55.295Z,981.23
2018-02-02T11:02:55.283Z,981.2
2018-02-02T11:03:55.276Z,981.18
2018-02-02T11:04:55.267Z,981.13
2018-02-02T11:05:55.258Z,981.18
2018-02-02T11:06:55.249Z,981.11
2018-02-02T11:07:55.241Z,981.15
2018-02-02T11:08:55.237Z,981.18
2018-02-02T11:09:55.227Z,981.17
2018-02-02T11:10:55.218Z,981.1
2018-02-02T11:11:55.209Z,981.15
2018-02-02T11:12:55.202Z,981.04
2018-02-02T11:13:55.194Z,981.04
2018-02-02T11:14:55.188Z,981.01
2018-02-02T11:15:55.179Z,980.99
2018-02-02T11:16:55.171Z,981.05
2018-02-02T11:17:55.165Z,980.98
2018-02-02T11:18:55.157Z,980.97
2018-02-02T11:19:55.149Z,980.96
2018-02-02T11:20:55.144Z,981.02
2018-02-02T11:21:55.137Z,980.96
2018-02-02T11:22:55.127Z,980.86
2018-02-02T11:23:55.129Z,980.86
2018-02-02T11:24:55.115Z,980.9
2018-02-02T11:25:55.108Z,981
2018-02-02T11:26:55.128Z,980.89
2018-02-02T11:27:55.094Z,980.86
2018-02-02T11:28:55.086Z,980.86
2018-02-02T11:29:55.080Z,980.88
2018-02-02T11:30:55.074Z,980.94
2018-02-02T11:31:55.067Z,980.87
2018-02-02T11:32:55.059Z,980.87
2018-02-02T11:33:55.053Z,980.86
2018-02-02T11:34:55.045Z,980.89
2018-02-02T11:35:55.038Z,980.86
2018-02-02T11:36:55.034Z,980.83
2018-02-02T11:37:55.024Z,980.88
2018-02-02T11:38:55.055Z,980.92
2018-02-02T11:39:55.010Z,980.83
2018-02-02T11:40:55.005Z,980.88
2018-02-02T11:41:55.053Z,980.88
2018-02-02T11:42:54.991Z,980.9
2018-02-02T11:43:54.990Z,980.92
2018-02-02T11:44:54.980Z,980.87
2018-02-02T11:45:54.970Z,980.87
2018-02-02T11:46:54.962Z,980.9
2018-02-02T11:47:54.959Z,980.89
2018-02-02T11:48:54.951Z,980.86
2018-02-02T11:49:54.942Z,980.89
2018-02-02T11:50:54.934Z,980.93
2018-02-02T11:51:54.931Z,980.79
2018-02-02T11:52:54.930Z,980.88
2018-02-02T11:53:54.918Z,980.9
2018-02-02T11:54:54.907Z,980.85
2018-02-02T11:55:54.899Z,980.86
2018-02-02T11:56:54.894Z,980.9
2018-02-02T11:57:54.887Z,980.89
2018-02-02T11:58:54.881Z,980.9
2018-02-02T11:59:54.901Z,980.9
2018-02-02T12:00:54.866Z,980.86
2018-02-02T12:01:54.861Z,980.89
2018-02-02T12:02:54.854Z,980.91
2018-02-02T12:03:54.849Z,980.83
2018-02-02T12:04:54.841Z,980.88
2018-02-02T12:05:54.834Z,980.93
2018-02-02T12:06:54.827Z,980.9
2018-02-02T12:07:55.082Z,980.89
2018-02-02T12:08:54.814Z,980.89
2018-02-02T12:09:54.807Z,980.93
2018-02-02T12:10:54.800Z,980.94
2018-02-02T12:11:54.798Z,980.95
2018-02-02T12:12:54.788Z,980.96
2018-02-02T12:13:54.782Z,980.87
2018-02-02T12:14:54.776Z,980.94
2018-02-02T12:15:54.770Z,980.93
2018-02-02T12:16:54.766Z,980.93
2018-02-02T12:17:54.756Z,980.88
2018-02-02T12:18:54.751Z,980.91
2018-02-02T12:19:54.747Z,980.9
2018-02-02T12:20:54.737Z,980.91
2018-02-02T12:21:54.747Z,980.93
2018-02-02T12:22:54.734Z,980.92
2018-02-02T12:23:54.720Z,980.92
2018-02-02T12:24:54.714Z,980.89
2018-02-02T12:25:54.713Z,980.87
2018-02-02T12:26:54.702Z,980.91
2018-02-02T12:27:54.695Z,980.96
2018-02-02T12:28:54.689Z,980.94
2018-02-02T12:29:54.682Z,980.96
2018-02-02T12:30:54.675Z,980.95
2018-02-02T12:31:54.672Z,981.01
2018-02-02T12:32:54.663Z,981.02
2018-02-02T12:33:54.657Z,981.02
2018-02-02T12:34:54.654Z,981.09
2018-02-02T12:35:54.644Z,981.04
2018-02-02T12:36:54.638Z,981.03
2018-02-02T12:37:54.637Z,980.97
2018-02-02T12:38:54.626Z,981
2018-02-02T12:39:54.628Z,981.02
2018-02-02T12:40:54.618Z,981.04
2018-02-02T12:41:54.604Z,980.98
2018-02-02T12:42:54.598Z,980.99
2018-02-02T12:43:54.592Z,980.96
2018-02-02T12:44:54.586Z,981.03
2018-02-02T12:45:54.583Z,981.08
2018-02-02T12:46:54.573Z,981.04
2018-02-02T12:47:54.567Z,981.03
2018-02-02T12:48:54.570Z,981.02
2018-02-02T12:49:54.554Z,981.02
2018-02-02T12:50:54.551Z,980.97
2018-02-02T12:51:54.541Z,981.03
2018-02-02T12:52:54.536Z,981.03
2018-02-02T12:53:54.527Z,981.01
2018-02-02T12:54:54.522Z,980.99
2018-02-02T12:55:54.516Z,980.96
2018-02-02T12:56:54.509Z,980.95
2018-02-02T12:57:54.502Z,980.93
2018-02-02T12:58:54.496Z,980.87
2018-02-02T12:59:54.512Z,980.92
2018-02-02T13:00:54.483Z,980.9
2018-02-02T13:01:54.476Z,980.96
2018-02-02T13:02:54.468Z,980.89
2018-02-02T13:03:54.461Z,980.81
2018-02-02T13:04:54.455Z,980.84
2018-02-02T13:05:54.451Z,980.76
2018-02-02T13:06:54.445Z,980.82
2018-02-02T13:07:54.437Z,980.8